Yellow Lake, Wisconsin
Current Conditions -  °F | °C
As of 2:35 AM on Saturday 29 Nov 2014 (Local Time) from KRZN Reporting Station
Clear Clear  
Wind Chill: 14°   Ceiling: Unl
Heat Index: 21°   Visibility: 10mi
Dew Point: 18°   Wind: 6mph
Humidity: 88%   Direction: 160°SSE
Pressure: 29.63"   Gusts: NA
Location:  46.1107°N, 92.219°W
Report Text: KRZN 290835Z AUTO 16005KT 10SM CLR M06/M08 A2963 RMK AO2 T10601077
Loading
Personal Weather Stations






























Interactive Weather Map New forecast layout! Learn more

10-Day Weather Forecast

Advertisements
Track Severe Weather on mobile